Howell, MI

9:17 AM EDT on June 27, 2017 (GMT -0400)
Livingston County

Weather History for KOZW - March, 2013

Change the Weather History Date:

Saturday, March 2, 2013

  Actual Average Record
Temperature  
Mean Temperature 22 °F -  
Max Temperature 25 °F 36 °F 51 °F (1997)
Min Temperature 20 °F 21 °F 1 °F (2014)
Degree Days  
Heating Degree Days 42    
Moisture  
Dew Point 17 °F    
Average Humidity 74    
Maximum Humidity 79    
Minimum Humidity 68    
Precipitation  
Precipitation 0.00 in - - ()
Sea Level Pressure  
Sea Level Pressure 30.05 in    
Wind  
Wind Speed 7 mph (NW)    
Max Wind Speed 12 mph    
Max Gust Speed 16 mph    
Visibility 9 miles    
Events Snow    
Averages and records for this station are not official NWS values.
T = Trace of Precipitation, MM = Missing Value Source: NWS Daily Summary

Daily Weather History Graph

Daily Weather History Graph

Search for Another Location

Airport or City:

Trip Planner

Search our weather history database for the weather conditions in past years. The results will help you decide how hot, cold, wet, or windy it might be!

Date:

Astronomy

Mar. 02, 2013 Rise Set
Actual Time 7:09 AM EST 6:27 PM EST
Civil Twilight 6:41 AM EST 6:55 PM EST
Nautical Twilight 6:08 AM EST 7:28 PM EST
Astronomical Twilight 5:35 AM EST 8:00 PM EST
Moon No Moon Rise 9:29 AM EST (3/2)
Length of Visible Light 12h 14m
Length of Day
11h 17m
Waning Gibbous, 74% of the Moon is Illuminated
Mar 2
Waning Gibbous
Mar 4
Last Quarter
Mar 11
New
Mar 19
First Quarter
Mar 27
Full

Hourly Weather History & Observations

Time (EST) Temp. Windchill Dew Point Humidity Pressure Visibility Wind Dir Wind Speed Gust Speed Precip Events Conditions
12:14 AM 24.8 °F 19.1 °F 17.6 °F 74% 30.07 in 10.0 mi NNW 4.6 mph - N/A   Overcast
12:34 AM 24.8 °F 19.1 °F 17.2 °F 73% 30.06 in 10.0 mi North 4.6 mph - N/A   Overcast
12:55 AM 24.6 °F 15.8 °F 16.7 °F 72% 30.06 in 10.0 mi NNW 8.1 mph - N/A   Overcast
1:14 AM 24.6 °F 18.8 °F 16.5 °F 71% 30.06 in 10.0 mi NNW 4.6 mph - N/A   Overcast
1:35 AM 24.8 °F 17.9 °F 16.5 °F 71% 30.06 in 10.0 mi NNW 5.8 mph - N/A   Overcast
1:54 AM 24.8 °F 17.9 °F 16.3 °F 70% 30.06 in 10.0 mi NNW 5.8 mph - N/A   Overcast
2:14 AM 24.6 °F 16.7 °F 15.8 °F 69% 30.06 in 10.0 mi North 6.9 mph - N/A   Overcast
2:35 AM 24.8 °F 17.9 °F 16.3 °F 70% 30.05 in 10.0 mi NNW 5.8 mph - N/A   Overcast
2:54 AM 24.4 °F 16.5 °F 16.0 °F 70% 30.05 in 10.0 mi North 6.9 mph - N/A   Overcast
3:14 AM 24.3 °F 17.3 °F 16.2 °F 71% 30.04 in 10.0 mi NNW 5.8 mph - N/A   Overcast
3:35 AM 24.6 °F 16.7 °F 16.9 °F 72% 30.04 in 10.0 mi NW 6.9 mph - N/A   Overcast
3:54 AM 24.4 °F 16.5 °F 16.7 °F 72% 30.04 in 10.0 mi NNW 6.9 mph - N/A   Overcast
4:14 AM 24.4 °F 16.5 °F 16.7 °F 72% 30.04 in 10.0 mi NNW 6.9 mph - N/A   Overcast
4:35 AM 24.4 °F 14.2 °F 16.7 °F 72% 30.04 in 10.0 mi NNW 10.4 mph - N/A   Overcast
4:54 AM 24.3 °F 14.6 °F 16.7 °F 73% 30.04 in 10.0 mi NNW 9.2 mph - N/A   Overcast
5:14 AM 23.7 °F 16.6 °F 16.3 °F 73% 30.04 in 10.0 mi NNW 5.8 mph - N/A   Overcast
5:35 AM 23.7 °F 15.6 °F 16.3 °F 73% 30.04 in 10.0 mi NNW 6.9 mph - N/A   Overcast
5:54 AM 23.7 °F 17.8 °F 16.3 °F 73% 30.04 in 10.0 mi NNW 4.6 mph - N/A   Overcast
6:14 AM 23.7 °F 15.6 °F 16.5 °F 74% 30.04 in 10.0 mi NNW 6.9 mph - N/A   Overcast
6:35 AM 23.0 °F 13.1 °F 16.2 °F 75% 30.05 in 10.0 mi NW 9.2 mph - N/A   Overcast
6:54 AM 23.0 °F 13.9 °F 16.2 °F 75% 30.05 in 10.0 mi NW 8.1 mph - N/A   Overcast
7:15 AM 22.6 °F 14.3 °F 15.8 °F 75% 30.05 in 10.0 mi NNW 6.9 mph - N/A   Overcast
7:34 AM 22.5 °F 12.4 °F 15.8 °F 76% 30.05 in 10.0 mi NNW 9.2 mph - N/A   Overcast
7:54 AM 23.0 °F 14.7 °F 16.3 °F 76% 30.05 in 7.0 mi NNW 6.9 mph - N/A   Overcast
8:15 AM 22.3 °F 12.2 °F 16.5 °F 79% 30.06 in 7.0 mi NW 9.2 mph - N/A   Overcast
8:34 AM 22.6 °F 12.6 °F 16.9 °F 79% 30.06 in 7.0 mi NNW 9.2 mph - N/A   Overcast
8:54 AM 22.8 °F 13.6 °F 17.1 °F 79% 30.06 in 5.0 mi NNW 8.1 mph - N/A   Haze
9:15 AM 23.0 °F 13.1 °F 17.4 °F 79% 30.06 in 5.0 mi NNW 9.2 mph - N/A Snow Light Snow
9:34 AM 23.4 °F 15.2 °F 17.4 °F 78% 30.06 in 7.0 mi NNW 6.9 mph - N/A Snow Light Snow
9:54 AM 23.0 °F 14.7 °F 17.1 °F 78% 30.06 in 7.0 mi NNW 6.9 mph - N/A Snow Light Snow
10:15 AM 23.0 °F 15.8 °F 17.2 °F 79% 30.06 in 7.0 mi North 5.8 mph - N/A Snow Light Snow
10:34 AM 24.1 °F 17.0 °F 17.8 °F 77% 30.06 in 7.0 mi NNW 5.8 mph - N/A Snow Light Snow
10:54 AM 23.9 °F 15.8 °F 17.6 °F 77% 30.06 in 10.0 mi NNW 6.9 mph - N/A Snow Light Snow
11:15 AM 23.9 °F 15.0 °F 17.8 °F 77% 30.06 in 10.0 mi NNW 8.1 mph - N/A   Overcast
11:34 AM 24.3 °F 15.4 °F 18.1 °F 77% 30.06 in 7.0 mi NW 8.1 mph - N/A Snow Light Snow
11:54 AM 24.4 °F 15.6 °F 18.1 °F 77% 30.06 in 10.0 mi NNW 8.1 mph - N/A Snow Light Snow
12:14 PM 25.0 °F 14.2 °F 18.3 °F 76% 30.06 in 7.0 mi NNW 11.5 mph - N/A Snow Light Snow
12:34 PM 25.2 °F 16.5 °F 18.3 °F 75% 30.05 in 7.0 mi NNW 8.1 mph - N/A Snow Light Snow
12:55 PM 24.8 °F 16.9 °F 18.1 °F 76% 30.05 in 7.0 mi NNW 6.9 mph - N/A Snow Light Snow
1:14 PM 25.3 °F 16.0 °F 18.3 °F 75% 30.04 in 7.0 mi NNW 9.2 mph - N/A Snow Light Snow
1:34 PM 25.5 °F 16.2 °F 18.1 °F 74% 30.04 in 7.0 mi NW 9.2 mph - N/A Snow Light Snow
1:55 PM 25.5 °F 16.9 °F 18.0 °F 73% 30.04 in 7.0 mi NNW 8.1 mph - N/A Snow Light Snow
2:14 PM 25.5 °F 15.5 °F 17.8 °F 72% 30.04 in 5.0 mi NNW 10.4 mph - N/A Snow Light Snow
2:34 PM 25.7 °F 15.7 °F 18.0 °F 73% 30.03 in 7.0 mi NNW 10.4 mph - N/A Snow Light Snow
2:54 PM 25.5 °F 16.2 °F 17.6 °F 72% 30.03 in 7.0 mi NW 9.2 mph - N/A Snow Light Snow
3:14 PM 25.5 °F 16.9 °F 17.6 °F 72% 30.03 in 7.0 mi NNW 8.1 mph - N/A Snow Light Snow
3:35 PM 25.2 °F 16.5 °F 17.6 °F 73% 30.03 in 10.0 mi NNW 8.1 mph - N/A Snow Light Snow
3:54 PM 25.2 °F 16.5 °F 17.2 °F 72% 30.04 in 7.0 mi NNW 8.1 mph - N/A Snow Light Snow
4:14 PM 25.2 °F 19.5 °F 16.5 °F 70% 30.04 in 10.0 mi North 4.6 mph - N/A   Overcast
4:35 PM 24.8 °F 16.9 °F 16.5 °F 71% 30.04 in 10.0 mi NNW 6.9 mph - N/A Snow Light Snow
4:54 PM 24.8 °F 16.1 °F 15.6 °F 68% 30.04 in 10.0 mi NW 8.1 mph 16.1 mph N/A   Overcast
5:14 PM 24.6 °F 16.7 °F 17.2 °F 74% 30.04 in 10.0 mi NNW 6.9 mph - N/A   Overcast
5:35 PM 24.6 °F 17.7 °F 17.2 °F 74% 30.04 in 10.0 mi NNW 5.8 mph - N/A Snow Light Snow
5:54 PM 24.4 °F 15.6 °F 17.1 °F 73% 30.05 in 10.0 mi NNW 8.1 mph - N/A Snow Light Snow
6:14 PM 24.4 °F 17.5 °F 16.7 °F 72% 30.05 in 10.0 mi NNW 5.8 mph - N/A Snow Light Snow
6:35 PM 23.9 °F 16.8 °F 16.2 °F 72% 30.06 in 10.0 mi NNW 5.8 mph - N/A Snow Light Snow
6:54 PM 24.1 °F 16.0 °F 16.5 °F 73% 30.06 in 10.0 mi NW 6.9 mph - N/A   Overcast
7:14 PM 23.9 °F 18.0 °F 16.2 °F 72% 30.06 in 10.0 mi NW 4.6 mph - N/A Snow Light Snow
7:54 PM 23.9 °F 18.0 °F 16.3 °F 73% 30.05 in 10.0 mi WNW 4.6 mph - N/A Snow Light Snow
8:15 PM 23.9 °F 15.8 °F 16.5 °F 73% 30.05 in 10.0 mi WNW 6.9 mph - N/A Snow Light Snow
8:34 PM 23.9 °F 16.8 °F 16.7 °F 74% 30.05 in 10.0 mi WNW 5.8 mph - N/A   Overcast
8:54 PM 23.7 °F 15.6 °F 16.3 °F 73% 30.05 in 10.0 mi WNW 6.9 mph - N/A Snow Light Snow
9:15 PM 22.5 °F 16.3 °F 14.7 °F 72% 30.04 in 10.0 mi West 4.6 mph - N/A   Mostly Cloudy
9:34 PM 22.1 °F 15.9 °F 14.7 °F 73% 30.04 in 10.0 mi West 4.6 mph - N/A   Clear
9:54 PM 20.8 °F 13.2 °F 14.0 °F 75% 30.04 in 10.0 mi West 5.8 mph - N/A   Clear
10:14 PM 20.8 °F 13.2 °F 14.2 °F 75% 30.04 in 10.0 mi West 5.8 mph - N/A   Clear
10:34 PM 21.2 °F 14.9 °F 14.9 °F 77% 30.04 in 10.0 mi West 4.6 mph - N/A   Mostly Cloudy
10:55 PM 21.7 °F 14.3 °F 15.3 °F 76% 30.04 in 10.0 mi West 5.8 mph - N/A   Overcast
11:14 PM 22.1 °F 14.7 °F 14.9 °F 74% 30.04 in 10.0 mi West 5.8 mph - N/A   Overcast
11:34 PM 22.5 °F 13.2 °F 15.3 °F 74% 30.04 in 10.0 mi West 8.1 mph - N/A   Overcast
11:55 PM 22.6 °F 14.3 °F 15.3 °F 73% 30.03 in 10.0 mi WNW 6.9 mph - N/A   Overcast